sensor_id;sensor_type;location;lat;lon;timestamp;pressure;altitude;pressure_sealevel;temperature;humidity
64792;BME280;51226;47.504;19.074;2023-03-31T00:03:02;99892.50;;;11.33;88.29
64792;BME280;51226;47.504;19.074;2023-03-31T00:06:12;99888.84;;;11.26;88.95
64792;BME280;51226;47.504;19.074;2023-03-31T00:09:20;99888.16;;;11.34;88.67
64792;BME280;51226;47.504;19.074;2023-03-31T00:12:23;99901.37;;;11.40;87.66
64792;BME280;51226;47.504;19.074;2023-03-31T00:15:27;99887.34;;;11.36;87.31
64792;BME280;51226;47.504;19.074;2023-03-31T00:18:30;99886.53;;;11.39;87.25
64792;BME280;51226;47.504;19.074;2023-03-31T00:21:33;99877.78;;;11.37;87.83
64792;BME280;51226;47.504;19.074;2023-03-31T00:24:35;99879.53;;;11.36;88.13
64792;BME280;51226;47.504;19.074;2023-03-31T00:27:42;99880.63;;;11.46;86.54
64792;BME280;51226;47.504;19.074;2023-03-31T00:30:45;99888.88;;;11.61;85.06
64792;BME280;51226;47.504;19.074;2023-03-31T00:33:49;99873.91;;;11.91;83.29
64792;BME280;51226;47.504;19.074;2023-03-31T00:36:52;99884.88;;;11.76;83.93
64792;BME280;51226;47.504;19.074;2023-03-31T00:39:58;99879.13;;;11.56;85.06
64792;BME280;51226;47.504;19.074;2023-03-31T00:43:01;99875.12;;;11.68;84.50
64792;BME280;51226;47.504;19.074;2023-03-31T00:46:57;99869.41;;;11.83;82.66
64792;BME280;51226;47.504;19.074;2023-03-31T00:49:44;99876.75;;;11.63;83.49
64792;BME280;51226;47.504;19.074;2023-03-31T00:52:54;99874.03;;;11.60;83.68
64792;BME280;51226;47.504;19.074;2023-03-31T00:56:01;99874.78;;;11.55;83.50
64792;BME280;51226;47.504;19.074;2023-03-31T00:59:10;99869.47;;;11.52;83.40
64792;BME280;51226;47.504;19.074;2023-03-31T01:02:14;99866.91;;;11.53;83.19
64792;BME280;51226;47.504;19.074;2023-03-31T01:06:21;99868.41;;;11.78;81.18
64792;BME280;51226;47.504;19.074;2023-03-31T01:08:52;99859.84;;;11.85;80.48
64792;BME280;51226;47.504;19.074;2023-03-31T01:11:55;99857.44;;;11.92;79.90
64792;BME280;51226;47.504;19.074;2023-03-31T01:14:58;99857.28;;;11.87;79.52
64792;BME280;51226;47.504;19.074;2023-03-31T01:18:04;99858.16;;;11.87;79.57
64792;BME280;51226;47.504;19.074;2023-03-31T01:25:07;99850.16;;;11.80;79.42
64792;BME280;51226;47.504;19.074;2023-03-31T01:41:42;99859.03;;;11.52;79.81
64792;BME280;51226;47.504;19.074;2023-03-31T01:48:16;99855.41;;;11.46;79.85
64792;BME280;51226;47.504;19.074;2023-03-31T02:00:37;99848.19;;;11.36;80.45
64792;BME280;51226;47.504;19.074;2023-03-31T02:03:49;99849.81;;;11.31;80.30
64792;BME280;51226;47.504;19.074;2023-03-31T02:07:04;99853.81;;;11.18;80.97
64792;BME280;51226;47.504;19.074;2023-03-31T02:10:11;99852.81;;;11.13;81.58
64792;BME280;51226;47.504;19.074;2023-03-31T02:13:16;99855.16;;;11.04;81.83
64792;BME280;51226;47.504;19.074;2023-03-31T02:16:23;99847.53;;;11.11;80.42
64792;BME280;51226;47.504;19.074;2023-03-31T02:19:34;99847.19;;;10.99;81.42
64792;BME280;51226;47.504;19.074;2023-03-31T02:22:45;99845.44;;;10.98;81.29
64792;BME280;51226;47.504;19.074;2023-03-31T02:26:12;99851.28;;;10.89;82.19
64792;BME280;51226;47.504;19.074;2023-03-31T02:29:18;99854.63;;;10.85;82.50
64792;BME280;51226;47.504;19.074;2023-03-31T02:32:22;99840.84;;;10.89;81.43
64792;BME280;51226;47.504;19.074;2023-03-31T02:35:27;99850.94;;;10.77;82.22
64792;BME280;51226;47.504;19.074;2023-03-31T02:38:36;99853.50;;;10.75;82.49
64792;BME280;51226;47.504;19.074;2023-03-31T02:41:41;99850.94;;;10.77;81.48
64792;BME280;51226;47.504;19.074;2023-03-31T02:44:44;99843.81;;;10.71;82.19
64792;BME280;51226;47.504;19.074;2023-03-31T02:47:48;99835.19;;;10.74;81.76
64792;BME280;51226;47.504;19.074;2023-03-31T03:01:59;99840.50;;;10.77;80.59
64792;BME280;51226;47.504;19.074;2023-03-31T03:11:28;99824.69;;;10.72;79.94
64792;BME280;51226;47.504;19.074;2023-03-31T03:14:35;99827.84;;;10.61;80.93
64792;BME280;51226;47.504;19.074;2023-03-31T03:17:45;99832.81;;;10.51;81.70
64792;BME280;51226;47.504;19.074;2023-03-31T03:20:49;99823.88;;;10.43;81.94
64792;BME280;51226;47.504;19.074;2023-03-31T03:23:52;99836.00;;;10.41;81.84
64792;BME280;51226;47.504;19.074;2023-03-31T03:26:55;99823.69;;;10.37;82.29
64792;BME280;51226;47.504;19.074;2023-03-31T03:29:58;99821.91;;;10.34;82.50
64792;BME280;51226;47.504;19.074;2023-03-31T03:33:01;99822.25;;;10.47;80.77
64792;BME280;51226;47.504;19.074;2023-03-31T03:36:04;99820.31;;;10.40;81.45
64792;BME280;51226;47.504;19.074;2023-03-31T03:39:08;99828.91;;;10.37;81.21
64792;BME280;51226;47.504;19.074;2023-03-31T03:42:11;99827.94;;;10.33;81.49
64792;BME280;51226;47.504;19.074;2023-03-31T03:45:14;99827.28;;;10.41;80.19
64792;BME280;51226;47.504;19.074;2023-03-31T03:48:17;99833.37;;;10.41;80.38
64792;BME280;51226;47.504;19.074;2023-03-31T03:51:20;99828.13;;;10.40;80.69
64792;BME280;51226;47.504;19.074;2023-03-31T03:54:23;99833.25;;;10.36;80.54
64792;BME280;51226;47.504;19.074;2023-03-31T03:57:27;99822.81;;;10.36;80.28
64792;BME280;51226;47.504;19.074;2023-03-31T04:00:29;99827.81;;;10.30;80.86
64792;BME280;51226;47.504;19.074;2023-03-31T04:03:33;99827.72;;;10.27;81.24
64792;BME280;51226;47.504;19.074;2023-03-31T04:06:35;99832.91;;;10.26;81.38
64792;BME280;51226;47.504;19.074;2023-03-31T04:09:38;99840.63;;;10.23;81.31
64792;BME280;51226;47.504;19.074;2023-03-31T04:12:41;99832.72;;;10.19;81.38
64792;BME280;51226;47.504;19.074;2023-03-31T04:15:44;99835.25;;;10.18;81.48
64792;BME280;51226;47.504;19.074;2023-03-31T04:18:47;99822.38;;;10.23;80.80
64792;BME280;51226;47.504;19.074;2023-03-31T04:21:51;99824.91;;;10.19;80.67
64792;BME280;51226;47.504;19.074;2023-03-31T04:25:02;99825.66;;;10.17;81.13
64792;BME280;51226;47.504;19.074;2023-03-31T04:28:05;99819.47;;;10.13;81.52
64792;BME280;51226;47.504;19.074;2023-03-31T04:31:09;99821.94;;;10.09;81.89
64792;BME280;51226;47.504;19.074;2023-03-31T04:34:13;99827.09;;;10.06;81.79
64792;BME280;51226;47.504;19.074;2023-03-31T04:37:16;99825.19;;;10.01;81.79
64792;BME280;51226;47.504;19.074;2023-03-31T04:40:19;99820.81;;;9.99;82.13
64792;BME280;51226;47.504;19.074;2023-03-31T04:43:22;99818.91;;;9.95;82.59
64792;BME280;51226;47.504;19.074;2023-03-31T04:46:26;99808.50;;;9.95;82.67
64792;BME280;51226;47.504;19.074;2023-03-31T04:49:29;99809.31;;;9.92;82.58
64792;BME280;51226;47.504;19.074;2023-03-31T04:52:36;99813.66;;;9.93;82.72
64792;BME280;51226;47.504;19.074;2023-03-31T04:55:38;99820.59;;;9.93;82.81
64792;BME280;51226;47.504;19.074;2023-03-31T04:58:41;99821.41;;;9.92;82.80
64792;BME280;51226;47.504;19.074;2023-03-31T05:01:45;99813.00;;;9.99;82.62
64792;BME280;51226;47.504;19.074;2023-03-31T05:04:49;99810.44;;;10.02;82.80
64792;BME280;51226;47.504;19.074;2023-03-31T05:07:52;99807.22;;;10.09;82.60
64792;BME280;51226;47.504;19.074;2023-03-31T05:10:56;99803.03;;;10.14;82.08
64792;BME280;51226;47.504;19.074;2023-03-31T05:13:59;99798.84;;;10.19;81.68
64792;BME280;51226;47.504;19.074;2023-03-31T05:17:02;99802.47;;;10.25;81.62
64792;BME280;51226;47.504;19.074;2023-03-31T05:20:05;99793.88;;;10.29;81.32
64792;BME280;51226;47.504;19.074;2023-03-31T05:23:10;99792.22;;;10.31;81.50
64792;BME280;51226;47.504;19.074;2023-03-31T05:26:13;99797.53;;;10.34;81.58
64792;BME280;51226;47.504;19.074;2023-03-31T05:29:16;99799.41;;;10.38;81.48
64792;BME280;51226;47.504;19.074;2023-03-31T05:32:18;99788.25;;;10.44;81.79
64792;BME280;51226;47.504;19.074;2023-03-31T05:35:22;99791.06;;;10.50;81.22
64792;BME280;51226;47.504;19.074;2023-03-31T05:38:26;99788.69;;;10.57;80.91
64792;BME280;51226;47.504;19.074;2023-03-31T05:41:31;99800.28;;;10.69;80.54
64792;BME280;51226;47.504;19.074;2023-03-31T05:44:33;99790.97;;;10.79;80.59
64792;BME280;51226;47.504;19.074;2023-03-31T05:47:37;99792.19;;;10.91;80.67
64792;BME280;51226;47.504;19.074;2023-03-31T05:50:39;99786.59;;;11.09;78.65
64792;BME280;51226;47.504;19.074;2023-03-31T05:53:44;99784.56;;;11.32;77.43
64792;BME280;51226;47.504;19.074;2023-03-31T05:56:47;99785.72;;;11.44;77.08
64792;BME280;51226;47.504;19.074;2023-03-31T05:59:50;99771.34;;;11.61;76.22
64792;BME280;51226;47.504;19.074;2023-03-31T06:02:53;99776.06;;;11.76;75.96
64792;BME280;51226;47.504;19.074;2023-03-31T06:05:56;99772.97;;;11.94;75.60
64792;BME280;51226;47.504;19.074;2023-03-31T06:08:59;99764.53;;;12.04;75.47
64792;BME280;51226;47.504;19.074;2023-03-31T06:12:02;99769.16;;;12.18;75.64
64792;BME280;51226;47.504;19.074;2023-03-31T06:15:05;99765.97;;;12.31;74.50
64792;BME280;51226;47.504;19.074;2023-03-31T06:18:09;99765.25;;;12.40;74.47
64792;BME280;51226;47.504;19.074;2023-03-31T06:21:17;99756.78;;;12.52;72.95
64792;BME280;51226;47.504;19.074;2023-03-31T06:24:20;99759.63;;;12.64;73.49
64792;BME280;51226;47.504;19.074;2023-03-31T06:27:23;99768.69;;;12.82;71.15
64792;BME280;51226;47.504;19.074;2023-03-31T06:30:26;99764.56;;;12.94;69.15
64792;BME280;51226;47.504;19.074;2023-03-31T06:33:28;99763.91;;;13.08;69.11
64792;BME280;51226;47.504;19.074;2023-03-31T06:36:32;99765.16;;;13.28;67.60
64792;BME280;51226;47.504;19.074;2023-03-31T06:39:34;99766.19;;;13.35;67.93
64792;BME280;51226;47.504;19.074;2023-03-31T06:42:38;99761.97;;;13.46;67.67
64792;BME280;51226;47.504;19.074;2023-03-31T06:45:40;99756.94;;;13.59;67.76
64792;BME280;51226;47.504;19.074;2023-03-31T06:48:43;99756.44;;;13.84;66.23
64792;BME280;51226;47.504;19.074;2023-03-31T06:51:46;99749.81;;;14.11;64.86
64792;BME280;51226;47.504;19.074;2023-03-31T06:54:49;99746.53;;;14.27;64.96
64792;BME280;51226;47.504;19.074;2023-03-31T06:57:51;99752.84;;;14.40;63.77
64792;BME280;51226;47.504;19.074;2023-03-31T07:00:54;99755.72;;;14.60;61.37
64792;BME280;51226;47.504;19.074;2023-03-31T07:03:57;99748.00;;;14.74;61.46
64792;BME280;51226;47.504;19.074;2023-03-31T07:07:00;99754.31;;;14.93;61.53
64792;BME280;51226;47.504;19.074;2023-03-31T07:10:03;99751.94;;;15.19;61.08
64792;BME280;51226;47.504;19.074;2023-03-31T07:13:07;99759.25;;;15.56;59.77
64792;BME280;51226;47.504;19.074;2023-03-31T07:16:09;99771.66;;;15.74;59.53
64792;BME280;51226;47.504;19.074;2023-03-31T07:19:16;99760.38;;;15.86;60.29
64792;BME280;51226;47.504;19.074;2023-03-31T07:22:18;99755.28;;;16.20;60.39
64792;BME280;51226;47.504;19.074;2023-03-31T07:25:22;99748.41;;;16.49;58.90
64792;BME280;51226;47.504;19.074;2023-03-31T07:28:24;99740.66;;;16.91;57.71
64792;BME280;51226;47.504;19.074;2023-03-31T07:31:28;99734.50;;;17.15;55.61
64792;BME280;51226;47.504;19.074;2023-03-31T07:34:30;99737.16;;;17.28;55.63
64792;BME280;51226;47.504;19.074;2023-03-31T07:37:37;99729.25;;;17.37;55.79
64792;BME280;51226;47.504;19.074;2023-03-31T07:40:42;99730.09;;;17.59;55.97
64792;BME280;51226;47.504;19.074;2023-03-31T07:43:47;99716.00;;;17.92;55.33
64792;BME280;51226;47.504;19.074;2023-03-31T07:46:50;99713.28;;;18.23;53.97
64792;BME280;51226;47.504;19.074;2023-03-31T07:49:53;99708.75;;;18.44;51.49
64792;BME280;51226;47.504;19.074;2023-03-31T07:52:58;99708.62;;;18.68;54.49
64792;BME280;51226;47.504;19.074;2023-03-31T07:56:02;99705.06;;;18.76;52.49
64792;BME280;51226;47.504;19.074;2023-03-31T07:59:05;99706.69;;;19.04;50.04
64792;BME280;51226;47.504;19.074;2023-03-31T08:02:13;99706.53;;;19.21;50.81
64792;BME280;51226;47.504;19.074;2023-03-31T08:05:18;99702.72;;;19.53;50.07
64792;BME280;51226;47.504;19.074;2023-03-31T08:08:21;99694.59;;;19.78;49.20
64792;BME280;51226;47.504;19.074;2023-03-31T08:11:25;99693.59;;;19.87;48.85
64792;BME280;51226;47.504;19.074;2023-03-31T08:14:28;99694.34;;;19.98;48.30
64792;BME280;51226;47.504;19.074;2023-03-31T08:17:42;99686.28;;;20.07;48.13
64792;BME280;51226;47.504;19.074;2023-03-31T08:20:45;99680.91;;;20.15;48.60
64792;BME280;51226;47.504;19.074;2023-03-31T08:23:55;99679.69;;;20.39;48.05
64792;BME280;51226;47.504;19.074;2023-03-31T08:26:57;99665.37;;;20.52;47.09
64792;BME280;51226;47.504;19.074;2023-03-31T08:30:01;99677.22;;;20.90;46.43
64792;BME280;51226;47.504;19.074;2023-03-31T08:33:06;99676.91;;;21.09;46.76
64792;BME280;51226;47.504;19.074;2023-03-31T08:36:09;99654.66;;;21.19;44.87
64792;BME280;51226;47.504;19.074;2023-03-31T08:39:12;99643.75;;;21.35;43.48
64792;BME280;51226;47.504;19.074;2023-03-31T08:42:20;99645.50;;;21.37;43.55
64792;BME280;51226;47.504;19.074;2023-03-31T08:45:29;99636.50;;;21.48;43.63
64792;BME280;51226;47.504;19.074;2023-03-31T08:48:41;99635.06;;;21.75;41.43
64792;BME280;51226;47.504;19.074;2023-03-31T08:51:54;99623.09;;;21.55;43.54
64792;BME280;51226;47.504;19.074;2023-03-31T08:55:01;99629.19;;;22.02;42.94
64792;BME280;51226;47.504;19.074;2023-03-31T08:58:14;99612.09;;;22.16;41.92
64792;BME280;51226;47.504;19.074;2023-03-31T09:08:25;99599.22;;;22.38;40.92
64792;BME280;51226;47.504;19.074;2023-03-31T09:15:05;99587.41;;;22.87;39.54
64792;BME280;51226;47.504;19.074;2023-03-31T09:18:36;99587.66;;;23.14;38.20
64792;BME280;51226;47.504;19.074;2023-03-31T09:21:43;99583.53;;;22.65;39.55
64792;BME280;51226;47.504;19.074;2023-03-31T09:28:27;99575.75;;;23.59;38.39
64792;BME280;51226;47.504;19.074;2023-03-31T09:31:37;99567.41;;;23.73;37.17
64792;BME280;51226;47.504;19.074;2023-03-31T09:34:41;99575.97;;;23.53;37.80
64792;BME280;51226;47.504;19.074;2023-03-31T09:37:44;99565.09;;;22.93;40.33
64792;BME280;51226;47.504;19.074;2023-03-31T09:40:47;99558.16;;;23.22;39.78
64792;BME280;51226;47.504;19.074;2023-03-31T09:43:50;99556.12;;;23.63;39.91
64792;BME280;51226;47.504;19.074;2023-03-31T09:46:54;99549.47;;;24.09;37.51
64792;BME280;51226;47.504;19.074;2023-03-31T09:49:59;99548.44;;;24.13;40.94
64792;BME280;51226;47.504;19.074;2023-03-31T09:53:04;99541.81;;;24.53;36.71
64792;BME280;51226;47.504;19.074;2023-03-31T09:56:08;99537.63;;;23.90;40.35
64792;BME280;51226;47.504;19.074;2023-03-31T09:59:32;99532.50;;;24.40;38.06
64792;BME280;51226;47.504;19.074;2023-03-31T10:02:52;99518.34;;;25.17;37.65
64792;BME280;51226;47.504;19.074;2023-03-31T10:05:56;99515.41;;;25.73;34.93
64792;BME280;51226;47.504;19.074;2023-03-31T10:09:03;99510.91;;;25.97;34.16
64792;BME280;51226;47.504;19.074;2023-03-31T10:12:14;99501.66;;;26.06;32.86
64792;BME280;51226;47.504;19.074;2023-03-31T10:15:25;99493.09;;;25.98;32.37
64792;BME280;51226;47.504;19.074;2023-03-31T10:18:40;99505.72;;;26.16;32.04
64792;BME280;51226;47.504;19.074;2023-03-31T10:21:46;99489.63;;;25.23;33.10
64792;BME280;51226;47.504;19.074;2023-03-31T10:24:51;99476.94;;;24.81;34.96
64792;BME280;51226;47.504;19.074;2023-03-31T10:27:55;99475.63;;;23.84;37.31
64792;BME280;51226;47.504;19.074;2023-03-31T10:30:59;99469.88;;;22.74;36.77
64792;BME280;51226;47.504;19.074;2023-03-31T10:34:08;99473.72;;;22.97;37.84
64792;BME280;51226;47.504;19.074;2023-03-31T10:37:18;99474.78;;;22.90;37.02
64792;BME280;51226;47.504;19.074;2023-03-31T10:40:29;99454.25;;;22.62;39.16
64792;BME280;51226;47.504;19.074;2023-03-31T10:43:39;99460.09;;;22.05;39.62
64792;BME280;51226;47.504;19.074;2023-03-31T10:46:51;99465.25;;;21.72;39.43
64792;BME280;51226;47.504;19.074;2023-03-31T10:49:57;99462.63;;;20.84;38.75
64792;BME280;51226;47.504;19.074;2023-03-31T10:53:12;99451.63;;;20.54;39.96
64792;BME280;51226;47.504;19.074;2023-03-31T11:07:04;99452.34;;;21.56;41.44
64792;BME280;51226;47.504;19.074;2023-03-31T11:16:55;99429.63;;;22.19;39.59
64792;BME280;51226;47.504;19.074;2023-03-31T11:23:43;99425.28;;;20.97;42.91
64792;BME280;51226;47.504;19.074;2023-03-31T11:34:15;99400.66;;;20.91;42.08
64792;BME280;51226;47.504;19.074;2023-03-31T11:37:24;99380.56;;;20.31;43.50
64792;BME280;51226;47.504;19.074;2023-03-31T11:40:42;99375.56;;;20.13;44.09
64792;BME280;51226;47.504;19.074;2023-03-31T11:43:55;99362.41;;;20.10;44.11
64792;BME280;51226;47.504;19.074;2023-03-31T11:47:06;99345.72;;;20.05;44.72
64792;BME280;51226;47.504;19.074;2023-03-31T11:50:20;99333.34;;;19.51;44.04
64792;BME280;51226;47.504;19.074;2023-03-31T11:53:30;99336.25;;;19.32;46.43
64792;BME280;51226;47.504;19.074;2023-03-31T11:56:38;99324.78;;;19.33;47.11
64792;BME280;51226;47.504;19.074;2023-03-31T11:59:42;99327.53;;;19.27;45.15
64792;BME280;51226;47.504;19.074;2023-03-31T12:03:06;99331.50;;;18.94;46.00
64792;BME280;51226;47.504;19.074;2023-03-31T12:06:14;99321.09;;;18.80;47.08
64792;BME280;51226;47.504;19.074;2023-03-31T12:09:26;99311.94;;;19.07;47.00
64792;BME280;51226;47.504;19.074;2023-03-31T12:12:41;99298.44;;;19.27;46.03
64792;BME280;51226;47.504;19.074;2023-03-31T12:15:56;99292.31;;;19.25;46.64
64792;BME280;51226;47.504;19.074;2023-03-31T12:22:46;99291.47;;;19.23;46.62
64792;BME280;51226;47.504;19.074;2023-03-31T12:25:53;99289.50;;;19.34;45.96
64792;BME280;51226;47.504;19.074;2023-03-31T12:29:04;99280.66;;;19.38;46.55
64792;BME280;51226;47.504;19.074;2023-03-31T12:32:19;99272.34;;;19.61;46.83
64792;BME280;51226;47.504;19.074;2023-03-31T12:35:28;99288.84;;;19.77;44.83
64792;BME280;51226;47.504;19.074;2023-03-31T12:45:38;99259.63;;;19.84;46.21
64792;BME280;51226;47.504;19.074;2023-03-31T12:52:14;99240.00;;;20.83;43.89
64792;BME280;51226;47.504;19.074;2023-03-31T13:01:28;99234.38;;;20.98;43.20
64792;BME280;51226;47.504;19.074;2023-03-31T13:04:30;99220.78;;;20.73;44.55
64792;BME280;51226;47.504;19.074;2023-03-31T13:07:37;99228.47;;;20.45;44.44
64792;BME280;51226;47.504;19.074;2023-03-31T13:10:58;99222.06;;;20.11;45.46
64792;BME280;51226;47.504;19.074;2023-03-31T13:14:21;99222.63;;;19.82;46.09
64792;BME280;51226;47.504;19.074;2023-03-31T13:17:27;99209.37;;;19.82;46.57
64792;BME280;51226;47.504;19.074;2023-03-31T13:20:40;99204.72;;;19.96;46.08
64792;BME280;51226;47.504;19.074;2023-03-31T13:23:44;99202.94;;;19.97;46.47
64792;BME280;51226;47.504;19.074;2023-03-31T13:26:49;99187.41;;;19.78;46.88
64792;BME280;51226;47.504;19.074;2023-03-31T13:29:53;99174.31;;;19.69;47.40
64792;BME280;51226;47.504;19.074;2023-03-31T13:46:49;99140.59;;;19.32;44.17
64792;BME280;51226;47.504;19.074;2023-03-31T13:50:31;99140.84;;;19.18;44.39
64792;BME280;51226;47.504;19.074;2023-03-31T14:07:44;99108.44;;;18.51;45.50
64792;BME280;51226;47.504;19.074;2023-03-31T14:10:49;99105.66;;;18.60;45.07
64792;BME280;51226;47.504;19.074;2023-03-31T14:13:59;99103.84;;;18.62;45.18
64792;BME280;51226;47.504;19.074;2023-03-31T14:17:03;99090.62;;;18.64;45.10
64792;BME280;51226;47.504;19.074;2023-03-31T14:20:27;99091.66;;;18.55;44.40
64792;BME280;51226;47.504;19.074;2023-03-31T14:23:39;99082.97;;;18.47;44.96
64792;BME280;51226;47.504;19.074;2023-03-31T14:30:22;99059.72;;;18.69;44.58
64792;BME280;51226;47.504;19.074;2023-03-31T14:34:36;99049.00;;;18.80;44.29
64792;BME280;51226;47.504;19.074;2023-03-31T14:37:12;99032.00;;;18.98;43.89
64792;BME280;51226;47.504;19.074;2023-03-31T14:40:19;99022.19;;;19.04;44.98
64792;BME280;51226;47.504;19.074;2023-03-31T14:43:25;99033.44;;;19.14;44.95
64792;BME280;51226;47.504;19.074;2023-03-31T14:46:31;99013.91;;;19.23;44.59
64792;BME280;51226;47.504;19.074;2023-03-31T14:49:37;99027.19;;;19.18;43.03
64792;BME280;51226;47.504;19.074;2023-03-31T14:52:46;99016.81;;;19.07;43.16
64792;BME280;51226;47.504;19.074;2023-03-31T14:55:50;99015.13;;;19.05;43.22
64792;BME280;51226;47.504;19.074;2023-03-31T14:59:02;99011.66;;;19.01;43.20
64792;BME280;51226;47.504;19.074;2023-03-31T15:02:12;99008.25;;;18.95;43.80
64792;BME280;51226;47.504;19.074;2023-03-31T15:05:33;99013.97;;;18.68;44.51
64792;BME280;51226;47.504;19.074;2023-03-31T15:08:38;99008.94;;;18.55;44.88
64792;BME280;51226;47.504;19.074;2023-03-31T15:11:42;99013.59;;;18.37;46.10
64792;BME280;51226;47.504;19.074;2023-03-31T15:14:49;99007.53;;;18.32;46.45
64792;BME280;51226;47.504;19.074;2023-03-31T15:17:53;99008.53;;;18.25;47.13
64792;BME280;51226;47.504;19.074;2023-03-31T15:20:56;99000.63;;;18.23;47.46
64792;BME280;51226;47.504;19.074;2023-03-31T15:23:59;98999.03;;;18.13;48.16
64792;BME280;51226;47.504;19.074;2023-03-31T15:27:09;98994.53;;;18.20;47.45
64792;BME280;51226;47.504;19.074;2023-03-31T15:30:24;98994.37;;;18.27;46.69
64792;BME280;51226;47.504;19.074;2023-03-31T15:33:33;99005.16;;;18.15;44.95
64792;BME280;51226;47.504;19.074;2023-03-31T15:36:38;99002.75;;;18.00;44.80
64792;BME280;51226;47.504;19.074;2023-03-31T15:39:43;98984.56;;;17.78;45.23
64792;BME280;51226;47.504;19.074;2023-03-31T15:42:53;98974.16;;;17.66;45.94
64792;BME280;51226;47.504;19.074;2023-03-31T15:46:47;98964.75;;;17.48;46.78
64792;BME280;51226;47.504;19.074;2023-03-31T15:49:57;98972.72;;;17.41;47.30
64792;BME280;51226;47.504;19.074;2023-03-31T15:53:00;98958.00;;;17.25;47.61
64792;BME280;51226;47.504;19.074;2023-03-31T15:56:05;98965.09;;;17.18;48.00
64792;BME280;51226;47.504;19.074;2023-03-31T15:59:23;98952.94;;;17.08;48.01
64792;BME280;51226;47.504;19.074;2023-03-31T16:02:40;98936.47;;;16.91;48.38
64792;BME280;51226;47.504;19.074;2023-03-31T16:05:54;98927.78;;;16.76;48.87
64792;BME280;51226;47.504;19.074;2023-03-31T16:09:08;98942.00;;;16.61;48.86
64792;BME280;51226;47.504;19.074;2023-03-31T16:12:20;98946.44;;;16.55;48.67
64792;BME280;51226;47.504;19.074;2023-03-31T16:15:36;98935.03;;;16.54;48.92
64792;BME280;51226;47.504;19.074;2023-03-31T16:18:46;98943.81;;;16.53;48.57
64792;BME280;51226;47.504;19.074;2023-03-31T16:21:53;98940.28;;;16.56;48.45
64792;BME280;51226;47.504;19.074;2023-03-31T16:25:10;98922.94;;;16.35;49.20
64792;BME280;51226;47.504;19.074;2023-03-31T16:28:19;98926.53;;;16.27;49.42
64792;BME280;51226;47.504;19.074;2023-03-31T16:31:39;98938.88;;;16.16;49.92
64792;BME280;51226;47.504;19.074;2023-03-31T16:34:56;98934.50;;;16.14;49.76
64792;BME280;51226;47.504;19.074;2023-03-31T16:37:59;98942.50;;;16.04;50.26
64792;BME280;51226;47.504;19.074;2023-03-31T16:41:04;98972.28;;;16.02;50.71
64792;BME280;51226;47.504;19.074;2023-03-31T16:44:08;98923.31;;;15.87;51.16
64792;BME280;51226;47.504;19.074;2023-03-31T16:47:12;98964.53;;;15.80;51.56
64792;BME280;51226;47.504;19.074;2023-03-31T16:50:29;98972.44;;;15.80;51.93
64792;BME280;51226;47.504;19.074;2023-03-31T16:53:34;98977.72;;;15.71;52.27
64792;BME280;51226;47.504;19.074;2023-03-31T16:56:37;98976.91;;;15.61;52.60
64792;BME280;51226;47.504;19.074;2023-03-31T16:59:40;98982.19;;;15.53;52.97
64792;BME280;51226;47.504;19.074;2023-03-31T17:02:44;98962.91;;;15.56;52.96
64792;BME280;51226;47.504;19.074;2023-03-31T17:05:49;98972.56;;;15.51;53.26
64792;BME280;51226;47.504;19.074;2023-03-31T17:08:54;98962.06;;;15.54;53.09
64792;BME280;51226;47.504;19.074;2023-03-31T17:11:57;98969.94;;;15.49;53.09
64792;BME280;51226;47.504;19.074;2023-03-31T17:15:00;98977.00;;;15.33;53.79
64792;BME280;51226;47.504;19.074;2023-03-31T17:18:04;98984.94;;;15.30;53.95
64792;BME280;51226;47.504;19.074;2023-03-31T17:21:10;98982.28;;;15.33;53.89
64792;BME280;51226;47.504;19.074;2023-03-31T17:24:15;98976.16;;;15.30;53.96
64792;BME280;51226;47.504;19.074;2023-03-31T17:27:18;98989.34;;;15.16;54.37
64792;BME280;51226;47.504;19.074;2023-03-31T17:30:22;98990.22;;;15.19;54.50
64792;BME280;51226;47.504;19.074;2023-03-31T17:33:26;98982.38;;;15.12;54.68
64792;BME280;51226;47.504;19.074;2023-03-31T17:36:29;98994.66;;;15.02;55.23
64792;BME280;51226;47.504;19.074;2023-03-31T17:39:32;98981.53;;;14.99;55.29
64792;BME280;51226;47.504;19.074;2023-03-31T17:42:35;98992.94;;;14.90;55.60
64792;BME280;51226;47.504;19.074;2023-03-31T17:45:38;98984.19;;;14.85;56.32
64792;BME280;51226;47.504;19.074;2023-03-31T17:48:41;98986.78;;;14.88;55.92
64792;BME280;51226;47.504;19.074;2023-03-31T17:51:45;98985.97;;;14.77;56.93
64792;BME280;51226;47.504;19.074;2023-03-31T17:54:47;98978.09;;;14.72;58.22
64792;BME280;51226;47.504;19.074;2023-03-31T17:57:52;98973.69;;;14.73;59.66
64792;BME280;51226;47.504;19.074;2023-03-31T18:00:55;98992.97;;;14.72;57.67
64792;BME280;51226;47.504;19.074;2023-03-31T18:03:58;98987.72;;;14.72;57.18
64792;BME280;51226;47.504;19.074;2023-03-31T18:07:01;98994.69;;;14.70;57.74
64792;BME280;51226;47.504;19.074;2023-03-31T18:10:05;98992.09;;;14.65;57.77
64792;BME280;51226;47.504;19.074;2023-03-31T18:13:08;98990.34;;;14.72;57.58
64792;BME280;51226;47.504;19.074;2023-03-31T18:16:12;98987.72;;;14.69;57.51
64792;BME280;51226;47.504;19.074;2023-03-31T18:19:15;98979.84;;;14.70;57.13
64792;BME280;51226;47.504;19.074;2023-03-31T18:22:19;98979.84;;;14.64;57.69
64792;BME280;51226;47.504;19.074;2023-03-31T18:25:22;98972.84;;;14.60;57.74
64792;BME280;51226;47.504;19.074;2023-03-31T18:28:25;98971.09;;;14.59;57.67
64792;BME280;51226;47.504;19.074;2023-03-31T18:31:28;98977.19;;;14.56;57.82
64792;BME280;51226;47.504;19.074;2023-03-31T18:34:31;98983.34;;;14.57;58.06
64792;BME280;51226;47.504;19.074;2023-03-31T18:37:35;98990.31;;;14.56;58.46
64792;BME280;51226;47.504;19.074;2023-03-31T18:40:38;98987.72;;;14.62;58.67